DNAA/ABV METAR and TAF weather

Enter ICAO airport designator
Station Type Date Time Source
DNAA METAR 2022/06/26 07:00 UTC NOAA

DNAA 260700Z 09002KT 9999 SCT009 24/23 Q1015 NOSIG


Station Type Date Time Source
DNAA Decoded METAR 2022/06/26 07:00 UTC NOAA

Station name not available
Jun 26, 2022 - 03:00 AM EDT / 2022.06.26 0700 UTC
Wind: from the E (090 degrees) at 2 MPH (2 KT):0
Visibility: greater than 7 mile(s):0
Sky conditions: partly cloudy
Temperature: 75 F (24 C)
Dew Point: 73 F (23 C)
Relative Humidity: 94%
Pressure (altimeter): 29.97 in. Hg (1015 hPa)
ob: DNAA 260700Z 09002KT 9999 SCT009 24/23 Q1015 NOSIG
cycle: 7

Station Type Date Time Source
DNAA TAF 2022/06/26 06:27 UTC NOAA

TAF TAF DNAA 260500Z 2606/2712 08004KT 9999 FEW010 PROB30
TEMPO 2606/2610 21008KT TS BKN010 FEW019CB
BECMG 2610/2613 26010KT BKN012
BECMG 2613/2615 SCT012
TEMPO 2617/2622 TS FEW011 FEW020CB
BECMG 2622/2624 11004KT

Example: see airport list